sensor_id;sensor_type;location;lat;lon;timestamp;pressure;altitude;pressure_sealevel;temperature;humidity
59757;BME280;45631;51.962;5.974;2023-05-12T00:01:34;101457.53;;;11.62;100.00
59757;BME280;45631;51.962;5.974;2023-05-12T00:04:02;101451.75;;;11.56;100.00
59757;BME280;45631;51.962;5.974;2023-05-12T00:06:31;101455.63;;;11.50;100.00
59757;BME280;45631;51.962;5.974;2023-05-12T00:09:02;101461.72;;;11.50;100.00
59757;BME280;45631;51.962;5.974;2023-05-12T00:11:33;101454.31;;;11.57;100.00
59757;BME280;45631;51.962;5.974;2023-05-12T00:14:01;101444.63;;;11.58;100.00
59757;BME280;45631;51.962;5.974;2023-05-12T00:16:31;101449.81;;;11.59;100.00
59757;BME280;45631;51.962;5.974;2023-05-12T00:18:59;101449.53;;;11.64;100.00
59757;BME280;45631;51.962;5.974;2023-05-12T00:21:28;101450.38;;;11.64;100.00
59757;BME280;45631;51.962;5.974;2023-05-12T00:23:56;101452.06;;;11.51;100.00
59757;BME280;45631;51.962;5.974;2023-05-12T00:26:24;101438.97;;;11.64;100.00
59757;BME280;45631;51.962;5.974;2023-05-12T00:28:54;101440.88;;;11.62;100.00
59757;BME280;45631;51.962;5.974;2023-05-12T00:31:22;101441.81;;;11.61;100.00
59757;BME280;45631;51.962;5.974;2023-05-12T00:33:51;101434.56;;;11.64;100.00
59757;BME280;45631;51.962;5.974;2023-05-12T00:36:19;101435.31;;;11.52;100.00
59757;BME280;45631;51.962;5.974;2023-05-12T00:38:47;101433.63;;;11.51;100.00
59757;BME280;45631;51.962;5.974;2023-05-12T00:41:15;101433.41;;;11.54;100.00
59757;BME280;45631;51.962;5.974;2023-05-12T00:43:43;101430.88;;;11.53;100.00
59757;BME280;45631;51.962;5.974;2023-05-12T00:46:13;101438.78;;;11.53;100.00
59757;BME280;45631;51.962;5.974;2023-05-12T00:48:42;101432.09;;;11.47;100.00
59757;BME280;45631;51.962;5.974;2023-05-12T00:51:14;101430.50;;;11.44;100.00
59757;BME280;45631;51.962;5.974;2023-05-12T00:53:43;101424.47;;;11.42;100.00
59757;BME280;45631;51.962;5.974;2023-05-12T00:56:17;101427.03;;;11.44;100.00
59757;BME280;45631;51.962;5.974;2023-05-12T00:58:46;101426.59;;;11.36;100.00
59757;BME280;45631;51.962;5.974;2023-05-12T01:01:15;101422.00;;;11.39;100.00
59757;BME280;45631;51.962;5.974;2023-05-12T01:03:44;101420.41;;;11.37;100.00
59757;BME280;45631;51.962;5.974;2023-05-12T01:06:16;101416.66;;;11.41;100.00
59757;BME280;45631;51.962;5.974;2023-05-12T01:08:46;101419.19;;;11.42;100.00
59757;BME280;45631;51.962;5.974;2023-05-12T01:11:14;101403.31;;;11.44;100.00
59757;BME280;45631;51.962;5.974;2023-05-12T01:13:43;101398.78;;;11.46;100.00
59757;BME280;45631;51.962;5.974;2023-05-12T01:16:12;101402.94;;;11.50;100.00
59757;BME280;45631;51.962;5.974;2023-05-12T01:18:45;101393.34;;;11.49;100.00
59757;BME280;45631;51.962;5.974;2023-05-12T01:21:16;101398.06;;;11.44;100.00
59757;BME280;45631;51.962;5.974;2023-05-12T01:23:48;101395.59;;;11.41;100.00
59757;BME280;45631;51.962;5.974;2023-05-12T01:26:20;101393.97;;;11.38;100.00
59757;BME280;45631;51.962;5.974;2023-05-12T01:28:49;101396.34;;;11.43;100.00
59757;BME280;45631;51.962;5.974;2023-05-12T01:31:18;101408.84;;;11.39;100.00
59757;BME280;45631;51.962;5.974;2023-05-12T01:33:47;101408.75;;;11.41;100.00
59757;BME280;45631;51.962;5.974;2023-05-12T01:36:15;101404.59;;;11.37;100.00
59757;BME280;45631;51.962;5.974;2023-05-12T01:38:43;101402.56;;;11.42;100.00
59757;BME280;45631;51.962;5.974;2023-05-12T01:41:11;101401.38;;;11.31;100.00
59757;BME280;45631;51.962;5.974;2023-05-12T01:43:43;101403.88;;;11.35;100.00
59757;BME280;45631;51.962;5.974;2023-05-12T01:46:12;101403.47;;;11.26;100.00
59757;BME280;45631;51.962;5.974;2023-05-12T01:48:40;101407.97;;;11.24;100.00
59757;BME280;45631;51.962;5.974;2023-05-12T01:51:09;101393.09;;;11.23;100.00
59757;BME280;45631;51.962;5.974;2023-05-12T01:53:37;101393.28;;;11.20;100.00
59757;BME280;45631;51.962;5.974;2023-05-12T01:56:06;101395.09;;;11.20;100.00
59757;BME280;45631;51.962;5.974;2023-05-12T01:58:34;101393.56;;;11.15;100.00
59757;BME280;45631;51.962;5.974;2023-05-12T02:01:03;101400.44;;;11.18;100.00
59757;BME280;45631;51.962;5.974;2023-05-12T02:03:31;101396.84;;;11.19;100.00
59757;BME280;45631;51.962;5.974;2023-05-12T02:06:00;101393.28;;;11.20;100.00
59757;BME280;45631;51.962;5.974;2023-05-12T02:08:28;101389.25;;;11.14;100.00
59757;BME280;45631;51.962;5.974;2023-05-12T02:11:03;101387.53;;;11.13;100.00
59757;BME280;45631;51.962;5.974;2023-05-12T02:13:32;101395.00;;;11.21;100.00
59757;BME280;45631;51.962;5.974;2023-05-12T02:16:06;101387.28;;;11.18;100.00
59757;BME280;45631;51.962;5.974;2023-05-12T02:18:34;101394.50;;;11.14;100.00
59757;BME280;45631;51.962;5.974;2023-05-12T02:21:02;101387.72;;;11.10;100.00
59757;BME280;45631;51.962;5.974;2023-05-12T02:23:31;101394.78;;;11.10;100.00
59757;BME280;45631;51.962;5.974;2023-05-12T02:25:59;101386.59;;;11.14;100.00
59757;BME280;45631;51.962;5.974;2023-05-12T02:28:27;101389.59;;;11.08;100.00
59757;BME280;45631;51.962;5.974;2023-05-12T02:30:55;101391.88;;;11.14;100.00
59757;BME280;45631;51.962;5.974;2023-05-12T02:33:25;101391.03;;;11.14;100.00
59757;BME280;45631;51.962;5.974;2023-05-12T02:35:54;101383.28;;;11.11;100.00
59757;BME280;45631;51.962;5.974;2023-05-12T02:38:23;101377.69;;;11.17;100.00
59757;BME280;45631;51.962;5.974;2023-05-12T02:40:51;101381.44;;;11.13;100.00
59757;BME280;45631;51.962;5.974;2023-05-12T02:43:19;101381.25;;;11.16;100.00
59757;BME280;45631;51.962;5.974;2023-05-12T02:45:48;101374.19;;;11.16;100.00
59757;BME280;45631;51.962;5.974;2023-05-12T02:48:16;101375.97;;;11.16;100.00
59757;BME280;45631;51.962;5.974;2023-05-12T02:50:45;101377.94;;;11.12;100.00
59757;BME280;45631;51.962;5.974;2023-05-12T02:53:14;101374.47;;;11.12;100.00
59757;BME280;45631;51.962;5.974;2023-05-12T02:55:42;101377.94;;;11.12;100.00
59757;BME280;45631;51.962;5.974;2023-05-12T02:58:10;101369.09;;;11.13;100.00
59757;BME280;45631;51.962;5.974;2023-05-12T03:00:38;101375.16;;;11.15;100.00
59757;BME280;45631;51.962;5.974;2023-05-12T03:03:06;101373.53;;;11.13;100.00
59757;BME280;45631;51.962;5.974;2023-05-12T03:05:34;101368.19;;;11.14;100.00
59757;BME280;45631;51.962;5.974;2023-05-12T03:08:04;101369.88;;;11.15;100.00
59757;BME280;45631;51.962;5.974;2023-05-12T03:10:33;101361.69;;;11.20;100.00
59757;BME280;45631;51.962;5.974;2023-05-12T03:13:01;101365.00;;;11.24;100.00
59757;BME280;45631;51.962;5.974;2023-05-12T03:15:29;101371.50;;;11.18;100.00
59757;BME280;45631;51.962;5.974;2023-05-12T03:17:57;101363.59;;;11.18;100.00
59757;BME280;45631;51.962;5.974;2023-05-12T03:20:25;101367.63;;;11.24;100.00
59757;BME280;45631;51.962;5.974;2023-05-12T03:22:53;101374.84;;;11.20;100.00
59757;BME280;45631;51.962;5.974;2023-05-12T03:25:23;101370.38;;;11.22;100.00
59757;BME280;45631;51.962;5.974;2023-05-12T03:27:51;101364.63;;;11.30;100.00
59757;BME280;45631;51.962;5.974;2023-05-12T03:30:19;101362.00;;;11.30;100.00
59757;BME280;45631;51.962;5.974;2023-05-12T03:32:48;101363.13;;;11.26;100.00
59757;BME280;45631;51.962;5.974;2023-05-12T03:35:16;101368.13;;;11.30;100.00
59757;BME280;45631;51.962;5.974;2023-05-12T03:37:44;101359.44;;;11.28;100.00
59757;BME280;45631;51.962;5.974;2023-05-12T03:40:13;101367.34;;;11.28;100.00
59757;BME280;45631;51.962;5.974;2023-05-12T03:42:46;101366.91;;;11.36;100.00
59757;BME280;45631;51.962;5.974;2023-05-12T03:45:14;101378.19;;;11.38;100.00
59757;BME280;45631;51.962;5.974;2023-05-12T03:47:42;101372.16;;;11.36;100.00
59757;BME280;45631;51.962;5.974;2023-05-12T03:50:11;101377.16;;;11.41;100.00
59757;BME280;45631;51.962;5.974;2023-05-12T03:52:39;101385.91;;;11.41;100.00
59757;BME280;45631;51.962;5.974;2023-05-12T03:55:08;101378.75;;;11.43;100.00
59757;BME280;45631;51.962;5.974;2023-05-12T03:57:36;101382.06;;;11.47;100.00
59757;BME280;45631;51.962;5.974;2023-05-12T04:00:07;101379.03;;;11.53;100.00
59757;BME280;45631;51.962;5.974;2023-05-12T04:02:35;101382.78;;;11.49;100.00
59757;BME280;45631;51.962;5.974;2023-05-12T04:05:04;101382.63;;;11.52;100.00
59757;BME280;45631;51.962;5.974;2023-05-12T04:07:33;101391.47;;;11.51;100.00
59757;BME280;45631;51.962;5.974;2023-05-12T04:10:02;101381.41;;;11.58;100.00
59757;BME280;45631;51.962;5.974;2023-05-12T04:12:32;101378.00;;;11.56;100.00
59757;BME280;45631;51.962;5.974;2023-05-12T04:15:01;101374.34;;;11.58;100.00
59757;BME280;45631;51.962;5.974;2023-05-12T04:17:31;101382.34;;;11.57;100.00
59757;BME280;45631;51.962;5.974;2023-05-12T04:19:59;101377.75;;;11.60;100.00
59757;BME280;45631;51.962;5.974;2023-05-12T04:22:27;101377.56;;;11.63;100.00
59757;BME280;45631;51.962;5.974;2023-05-12T04:24:56;101380.19;;;11.63;100.00
59757;BME280;45631;51.962;5.974;2023-05-12T04:27:24;101383.38;;;11.69;100.00
59757;BME280;45631;51.962;5.974;2023-05-12T04:29:52;101388.06;;;11.78;100.00
59757;BME280;45631;51.962;5.974;2023-05-12T04:32:20;101394.84;;;11.82;100.00
59757;BME280;45631;51.962;5.974;2023-05-12T04:34:50;101394.09;;;11.80;100.00
59757;BME280;45631;51.962;5.974;2023-05-12T04:37:20;101397.41;;;11.83;100.00
59757;BME280;45631;51.962;5.974;2023-05-12T04:39:49;101395.63;;;11.84;100.00
59757;BME280;45631;51.962;5.974;2023-05-12T04:42:18;101405.31;;;11.83;100.00
59757;BME280;45631;51.962;5.974;2023-05-12T04:44:46;101402.75;;;11.82;100.00
59757;BME280;45631;51.962;5.974;2023-05-12T04:47:14;101398.97;;;11.86;100.00
59757;BME280;45631;51.962;5.974;2023-05-12T04:49:43;101399.75;;;11.88;100.00
59757;BME280;45631;51.962;5.974;2023-05-12T04:52:12;101393.66;;;11.88;100.00
59757;BME280;45631;51.962;5.974;2023-05-12T04:54:40;101390.53;;;11.95;100.00
59757;BME280;45631;51.962;5.974;2023-05-12T04:57:08;101407.31;;;11.94;100.00
59757;BME280;45631;51.962;5.974;2023-05-12T04:59:36;101404.59;;;11.96;100.00
59757;BME280;45631;51.962;5.974;2023-05-12T05:02:07;101404.09;;;12.04;100.00
59757;BME280;45631;51.962;5.974;2023-05-12T05:04:35;101405.78;;;12.05;100.00
59757;BME280;45631;51.962;5.974;2023-05-12T05:07:03;101408.22;;;12.08;100.00
59757;BME280;45631;51.962;5.974;2023-05-12T05:09:36;101414.28;;;12.10;100.00
59757;BME280;45631;51.962;5.974;2023-05-12T05:12:07;101417.84;;;12.09;100.00
59757;BME280;45631;51.962;5.974;2023-05-12T05:14:38;101421.97;;;12.13;100.00
59757;BME280;45631;51.962;5.974;2023-05-12T05:17:06;101430.56;;;12.16;100.00
59757;BME280;45631;51.962;5.974;2023-05-12T05:19:35;101436.41;;;12.22;100.00
59757;BME280;45631;51.962;5.974;2023-05-12T05:22:21;101438.06;;;12.23;100.00
59757;BME280;45631;51.962;5.974;2023-05-12T05:24:53;101437.59;;;12.30;100.00
59757;BME280;45631;51.962;5.974;2023-05-12T05:27:24;101428.84;;;12.30;100.00
59757;BME280;45631;51.962;5.974;2023-05-12T05:29:52;101441.00;;;12.32;100.00
59757;BME280;45631;51.962;5.974;2023-05-12T05:32:20;101434.59;;;12.37;100.00
59757;BME280;45631;51.962;5.974;2023-05-12T05:34:49;101443.13;;;12.40;100.00
59757;BME280;45631;51.962;5.974;2023-05-12T05:37:17;101442.19;;;12.41;100.00
59757;BME280;45631;51.962;5.974;2023-05-12T05:39:45;101443.28;;;12.51;100.00
59757;BME280;45631;51.962;5.974;2023-05-12T05:42:15;101452.63;;;12.57;100.00
59757;BME280;45631;51.962;5.974;2023-05-12T05:44:43;101448.09;;;12.59;100.00
59757;BME280;45631;51.962;5.974;2023-05-12T05:47:11;101462.78;;;12.63;100.00
59757;BME280;45631;51.962;5.974;2023-05-12T05:49:39;101468.25;;;12.60;100.00
59757;BME280;45631;51.962;5.974;2023-05-12T05:52:08;101463.34;;;12.68;100.00
59757;BME280;45631;51.962;5.974;2023-05-12T05:54:36;101469.63;;;12.80;100.00
59757;BME280;45631;51.962;5.974;2023-05-12T05:57:05;101471.81;;;12.74;100.00
59757;BME280;45631;51.962;5.974;2023-05-12T05:59:34;101476.03;;;12.76;100.00
59757;BME280;45631;51.962;5.974;2023-05-12T06:02:03;101477.44;;;12.82;100.00
59757;BME280;45631;51.962;5.974;2023-05-12T06:04:31;101478.28;;;12.82;100.00
59757;BME280;45631;51.962;5.974;2023-05-12T06:06:59;101487.31;;;12.93;100.00
59757;BME280;45631;51.962;5.974;2023-05-12T06:09:27;101489.94;;;12.93;100.00
59757;BME280;45631;51.962;5.974;2023-05-12T06:11:56;101493.63;;;12.90;100.00
59757;BME280;45631;51.962;5.974;2023-05-12T06:14:24;101495.94;;;12.95;100.00
59757;BME280;45631;51.962;5.974;2023-05-12T06:16:53;101501.78;;;13.00;100.00
59757;BME280;45631;51.962;5.974;2023-05-12T06:19:21;101501.94;;;13.11;100.00
59757;BME280;45631;51.962;5.974;2023-05-12T06:21:50;101504.66;;;13.10;100.00
59757;BME280;45631;51.962;5.974;2023-05-12T06:24:19;101506.06;;;13.15;100.00
59757;BME280;45631;51.962;5.974;2023-05-12T06:26:47;101510.63;;;13.26;100.00
59757;BME280;45631;51.962;5.974;2023-05-12T06:29:17;101514.25;;;13.25;100.00
59757;BME280;45631;51.962;5.974;2023-05-12T06:31:45;101519.13;;;13.31;100.00
59757;BME280;45631;51.962;5.974;2023-05-12T06:34:15;101522.34;;;13.37;100.00
59757;BME280;45631;51.962;5.974;2023-05-12T06:36:43;101521.53;;;13.34;100.00
59757;BME280;45631;51.962;5.974;2023-05-12T06:39:11;101532.47;;;13.43;100.00
59757;BME280;45631;51.962;5.974;2023-05-12T06:41:39;101529.56;;;13.47;100.00
59757;BME280;45631;51.962;5.974;2023-05-12T06:44:07;101532.91;;;13.49;100.00
59757;BME280;45631;51.962;5.974;2023-05-12T06:46:38;101536.09;;;13.55;100.00
59757;BME280;45631;51.962;5.974;2023-05-12T06:49:06;101538.97;;;13.64;100.00
59757;BME280;45631;51.962;5.974;2023-05-12T06:51:38;101532.34;;;13.72;100.00
59757;BME280;45631;51.962;5.974;2023-05-12T06:54:07;101547.78;;;13.78;100.00
59757;BME280;45631;51.962;5.974;2023-05-12T06:56:35;101543.34;;;13.91;100.00
59757;BME280;45631;51.962;5.974;2023-05-12T06:59:03;101550.03;;;13.97;100.00
59757;BME280;45631;51.962;5.974;2023-05-12T07:01:31;101553.09;;;14.03;100.00
59757;BME280;45631;51.962;5.974;2023-05-12T07:04:00;101561.44;;;14.23;100.00
59757;BME280;45631;51.962;5.974;2023-05-12T07:06:28;101554.47;;;14.35;100.00
59757;BME280;45631;51.962;5.974;2023-05-12T07:08:59;101560.38;;;14.51;100.00
59757;BME280;45631;51.962;5.974;2023-05-12T07:11:27;101565.56;;;14.66;100.00
59757;BME280;45631;51.962;5.974;2023-05-12T07:13:55;101558.84;;;14.86;100.00
59757;BME280;45631;51.962;5.974;2023-05-12T07:16:23;101564.22;;;14.97;100.00
59757;BME280;45631;51.962;5.974;2023-05-12T07:18:51;101554.88;;;15.04;100.00
59757;BME280;45631;51.962;5.974;2023-05-12T07:21:19;101568.16;;;15.16;100.00
59757;BME280;45631;51.962;5.974;2023-05-12T07:23:48;101573.03;;;15.22;100.00
59757;BME280;45631;51.962;5.974;2023-05-12T07:26:17;101575.72;;;15.33;100.00
59757;BME280;45631;51.962;5.974;2023-05-12T07:28:46;101576.97;;;15.41;100.00
59757;BME280;45631;51.962;5.974;2023-05-12T07:31:14;101570.81;;;15.40;100.00
59757;BME280;45631;51.962;5.974;2023-05-12T07:33:43;101578.22;;;15.48;100.00
59757;BME280;45631;51.962;5.974;2023-05-12T07:36:11;101578.47;;;15.56;100.00
59757;BME280;45631;51.962;5.974;2023-05-12T07:38:39;101575.41;;;15.74;100.00
59757;BME280;45631;51.962;5.974;2023-05-12T07:41:08;101586.50;;;15.79;100.00
59757;BME280;45631;51.962;5.974;2023-05-12T07:43:37;101578.25;;;15.83;100.00
59757;BME280;45631;51.962;5.974;2023-05-12T07:46:08;101584.75;;;15.91;100.00
59757;BME280;45631;51.962;5.974;2023-05-12T07:48:36;101584.19;;;15.98;100.00
59757;BME280;45631;51.962;5.974;2023-05-12T07:51:06;101581.78;;;16.07;100.00
59757;BME280;45631;51.962;5.974;2023-05-12T07:53:34;101580.47;;;16.23;100.00
59757;BME280;45631;51.962;5.974;2023-05-12T07:56:03;101581.56;;;16.32;100.00
59757;BME280;45631;51.962;5.974;2023-05-12T07:58:33;101578.91;;;16.44;100.00
59757;BME280;45631;51.962;5.974;2023-05-12T08:01:03;101582.78;;;16.51;100.00
59757;BME280;45631;51.962;5.974;2023-05-12T08:03:33;101581.94;;;16.73;100.00
59757;BME280;45631;51.962;5.974;2023-05-12T08:06:02;101582.19;;;16.93;100.00
59757;BME280;45631;51.962;5.974;2023-05-12T08:08:31;101583.38;;;17.00;100.00
59757;BME280;45631;51.962;5.974;2023-05-12T08:10:59;101587.09;;;17.09;100.00
59757;BME280;45631;51.962;5.974;2023-05-12T08:13:27;101585.88;;;17.01;100.00
59757;BME280;45631;51.962;5.974;2023-05-12T08:15:55;101602.53;;;17.15;100.00
59757;BME280;45631;51.962;5.974;2023-05-12T08:18:25;101588.97;;;17.29;100.00
59757;BME280;45631;51.962;5.974;2023-05-12T08:20:54;101601.84;;;17.45;100.00
59757;BME280;45631;51.962;5.974;2023-05-12T08:23:22;101595.00;;;17.31;100.00
59757;BME280;45631;51.962;5.974;2023-05-12T08:25:50;101599.31;;;17.44;100.00
59757;BME280;45631;51.962;5.974;2023-05-12T08:28:18;101602.06;;;17.53;100.00
59757;BME280;45631;51.962;5.974;2023-05-12T08:30:49;101603.31;;;17.70;100.00
59757;BME280;45631;51.962;5.974;2023-05-12T08:33:18;101607.34;;;17.86;100.00
59757;BME280;45631;51.962;5.974;2023-05-12T08:35:48;101607.47;;;17.96;100.00
59757;BME280;45631;51.962;5.974;2023-05-12T08:38:16;101606.91;;;17.81;100.00
59757;BME280;45631;51.962;5.974;2023-05-12T08:40:47;101614.78;;;17.71;100.00
59757;BME280;45631;51.962;5.974;2023-05-12T08:43:23;101626.81;;;17.86;100.00
59757;BME280;45631;51.962;5.974;2023-05-12T08:45:52;101613.44;;;17.77;100.00
59757;BME280;45631;51.962;5.974;2023-05-12T08:48:26;101613.34;;;17.99;100.00
59757;BME280;45631;51.962;5.974;2023-05-12T08:50:57;101617.69;;;18.00;100.00
59757;BME280;45631;51.962;5.974;2023-05-12T08:53:27;101627.94;;;18.05;100.00
59757;BME280;45631;51.962;5.974;2023-05-12T08:55:56;101633.81;;;17.99;100.00
59757;BME280;45631;51.962;5.974;2023-05-12T08:58:47;101631.47;;;18.05;100.00
59757;BME280;45631;51.962;5.974;2023-05-12T09:01:16;101629.38;;;18.09;100.00
59757;BME280;45631;51.962;5.974;2023-05-12T09:03:44;101644.56;;;18.18;100.00
59757;BME280;45631;51.962;5.974;2023-05-12T09:06:14;101637.63;;;18.27;100.00
59757;BME280;45631;51.962;5.974;2023-05-12T09:08:44;101640.47;;;18.35;100.00
59757;BME280;45631;51.962;5.974;2023-05-12T09:11:12;101636.72;;;18.38;100.00
59757;BME280;45631;51.962;5.974;2023-05-12T09:13:46;101641.75;;;18.41;100.00
59757;BME280;45631;51.962;5.974;2023-05-12T09:16:19;101642.47;;;18.43;100.00
59757;BME280;45631;51.962;5.974;2023-05-12T09:18:51;101643.06;;;18.47;100.00
59757;BME280;45631;51.962;5.974;2023-05-12T09:21:21;101641.84;;;18.61;100.00
59757;BME280;45631;51.962;5.974;2023-05-12T09:23:54;101654.16;;;18.52;100.00
59757;BME280;45631;51.962;5.974;2023-05-12T09:26:23;101656.41;;;18.56;100.00
59757;BME280;45631;51.962;5.974;2023-05-12T09:28:53;101652.81;;;18.67;100.00
59757;BME280;45631;51.962;5.974;2023-05-12T09:31:23;101650.69;;;18.61;100.00
59757;BME280;45631;51.962;5.974;2023-05-12T09:33:51;101652.91;;;18.56;100.00
59757;BME280;45631;51.962;5.974;2023-05-12T09:36:22;101650.88;;;18.69;100.00
59757;BME280;45631;51.962;5.974;2023-05-12T09:39:01;101659.66;;;18.60;100.00
59757;BME280;45631;51.962;5.974;2023-05-12T09:41:34;101656.03;;;18.61;100.00
59757;BME280;45631;51.962;5.974;2023-05-12T09:44:04;101659.47;;;18.52;100.00
59757;BME280;45631;51.962;5.974;2023-05-12T09:46:33;101656.13;;;18.59;100.00
59757;BME280;45631;51.962;5.974;2023-05-12T09:49:02;101665.69;;;18.62;100.00
59757;BME280;45631;51.962;5.974;2023-05-12T09:51:31;101661.41;;;18.71;100.00
59757;BME280;45631;51.962;5.974;2023-05-12T09:54:02;101663.78;;;18.74;100.00
59757;BME280;45631;51.962;5.974;2023-05-12T09:56:35;101661.44;;;18.81;100.00
59757;BME280;45631;51.962;5.974;2023-05-12T09:59:10;101661.50;;;18.90;100.00
59757;BME280;45631;51.962;5.974;2023-05-12T10:01:40;101659.69;;;18.91;100.00
59757;BME280;45631;51.962;5.974;2023-05-12T10:04:08;101654.38;;;18.91;100.00
59757;BME280;45631;51.962;5.974;2023-05-12T10:06:40;101661.28;;;19.03;100.00
59757;BME280;45631;51.962;5.974;2023-05-12T10:09:13;101666.63;;;19.13;100.00
59757;BME280;45631;51.962;5.974;2023-05-12T10:11:43;101665.53;;;19.16;100.00
59757;BME280;45631;51.962;5.974;2023-05-12T10:14:12;101673.22;;;19.09;100.00
59757;BME280;45631;51.962;5.974;2023-05-12T10:16:40;101667.44;;;19.04;100.00
59757;BME280;45631;51.962;5.974;2023-05-12T10:19:09;101666.22;;;19.18;100.00
59757;BME280;45631;51.962;5.974;2023-05-12T10:21:39;101666.50;;;19.24;100.00
59757;BME280;45631;51.962;5.974;2023-05-12T10:24:10;101673.84;;;19.42;100.00
59757;BME280;45631;51.962;5.974;2023-05-12T10:26:41;101674.13;;;19.49;100.00
59757;BME280;45631;51.962;5.974;2023-05-12T10:29:11;101673.69;;;19.43;100.00
59757;BME280;45631;51.962;5.974;2023-05-12T10:31:39;101666.69;;;19.42;100.00
59757;BME280;45631;51.962;5.974;2023-05-12T10:34:15;101665.41;;;19.56;100.00
59757;BME280;45631;51.962;5.974;2023-05-12T10:36:51;101664.19;;;19.61;100.00
59757;BME280;45631;51.962;5.974;2023-05-12T10:39:26;101665.03;;;19.81;100.00
59757;BME280;45631;51.962;5.974;2023-05-12T10:42:00;101668.44;;;19.92;100.00
59757;BME280;45631;51.962;5.974;2023-05-12T10:44:28;101664.06;;;19.91;100.00
59757;BME280;45631;51.962;5.974;2023-05-12T10:46:56;101673.59;;;20.04;100.00
59757;BME280;45631;51.962;5.974;2023-05-12T10:49:32;101670.22;;;20.21;100.00
59757;BME280;45631;51.962;5.974;2023-05-12T10:52:05;101666.41;;;20.24;100.00
59757;BME280;45631;51.962;5.974;2023-05-12T10:54:39;101672.41;;;20.46;100.00
59757;BME280;45631;51.962;5.974;2023-05-12T10:57:14;101674.34;;;20.63;100.00
59757;BME280;45631;51.962;5.974;2023-05-12T10:59:48;101662.84;;;20.90;100.00
59757;BME280;45631;51.962;5.974;2023-05-12T11:02:17;101667.44;;;21.26;100.00
59757;BME280;45631;51.962;5.974;2023-05-12T11:04:49;101663.34;;;21.50;94.98
59757;BME280;45631;51.962;5.974;2023-05-12T11:07:22;101662.34;;;21.51;94.73
59757;BME280;45631;51.962;5.974;2023-05-12T11:09:53;101654.81;;;21.64;91.67
59757;BME280;45631;51.962;5.974;2023-05-12T11:12:28;101654.66;;;21.84;94.82
59757;BME280;45631;51.962;5.974;2023-05-12T11:14:59;101671.69;;;21.83;93.56
59757;BME280;45631;51.962;5.974;2023-05-12T11:17:28;101654.03;;;21.90;92.70
59757;BME280;45631;51.962;5.974;2023-05-12T11:19:56;101668.66;;;21.77;93.40
59757;BME280;45631;51.962;5.974;2023-05-12T11:22:26;101667.97;;;21.75;93.07
59757;BME280;45631;51.962;5.974;2023-05-12T11:24:54;101668.66;;;21.77;92.39
59757;BME280;45631;51.962;5.974;2023-05-12T11:27:22;101667.41;;;21.90;96.29
59757;BME280;45631;51.962;5.974;2023-05-12T11:29:58;101664.88;;;22.06;92.21
59757;BME280;45631;51.962;5.974;2023-05-12T11:32:29;101665.31;;;22.20;93.12
59757;BME280;45631;51.962;5.974;2023-05-12T11:35:07;101663.38;;;22.56;89.58
59757;BME280;45631;51.962;5.974;2023-05-12T11:37:38;101660.50;;;22.50;87.07
59757;BME280;45631;51.962;5.974;2023-05-12T11:40:17;101663.28;;;22.66;88.90
59757;BME280;45631;51.962;5.974;2023-05-12T11:42:48;101661.06;;;22.96;91.84
59757;BME280;45631;51.962;5.974;2023-05-12T11:45:22;101660.59;;;23.09;84.96
59757;BME280;45631;51.962;5.974;2023-05-12T11:47:51;101661.88;;;23.56;88.36
59757;BME280;45631;51.962;5.974;2023-05-12T11:50:21;101662.56;;;23.66;84.25
59757;BME280;45631;51.962;5.974;2023-05-12T11:52:51;101661.75;;;23.66;82.63
59757;BME280;45631;51.962;5.974;2023-05-12T11:55:22;101664.75;;;23.87;85.80
59757;BME280;45631;51.962;5.974;2023-05-12T11:57:58;101663.91;;;23.87;83.15
59757;BME280;45631;51.962;5.974;2023-05-12T12:00:31;101663.25;;;23.76;79.78
59757;BME280;45631;51.962;5.974;2023-05-12T12:03:10;101659.09;;;23.90;77.33
59757;BME280;45631;51.962;5.974;2023-05-12T12:05:44;101657.56;;;24.04;81.95
59757;BME280;45631;51.962;5.974;2023-05-12T12:08:15;101663.91;;;24.20;79.14
59757;BME280;45631;51.962;5.974;2023-05-12T12:10:43;101670.63;;;24.16;81.92
59757;BME280;45631;51.962;5.974;2023-05-12T12:13:12;101662.59;;;23.99;79.82
59757;BME280;45631;51.962;5.974;2023-05-12T12:15:40;101667.78;;;24.01;78.97
59757;BME280;45631;51.962;5.974;2023-05-12T12:18:08;101676.69;;;24.18;76.24
59757;BME280;45631;51.962;5.974;2023-05-12T12:20:36;101675.16;;;24.32;78.48
59757;BME280;45631;51.962;5.974;2023-05-12T12:23:04;101671.44;;;24.49;77.07
59757;BME280;45631;51.962;5.974;2023-05-12T12:25:34;101683.16;;;24.64;76.32
59757;BME280;45631;51.962;5.974;2023-05-12T12:28:03;101681.47;;;24.55;75.52
59757;BME280;45631;51.962;5.974;2023-05-12T12:30:32;101675.28;;;24.46;74.61
59757;BME280;45631;51.962;5.974;2023-05-12T12:33:00;101688.53;;;24.56;77.01
59757;BME280;45631;51.962;5.974;2023-05-12T12:35:28;101673.59;;;24.62;73.18
59757;BME280;45631;51.962;5.974;2023-05-12T12:37:56;101678.69;;;24.32;74.09
59757;BME280;45631;51.962;5.974;2023-05-12T12:40:25;101678.66;;;24.65;76.18
59757;BME280;45631;51.962;5.974;2023-05-12T12:42:54;101677.25;;;24.61;70.77
59757;BME280;45631;51.962;5.974;2023-05-12T12:45:23;101679.94;;;24.77;70.78
59757;BME280;45631;51.962;5.974;2023-05-12T12:47:51;101670.84;;;24.78;69.08
59757;BME280;45631;51.962;5.974;2023-05-12T12:50:20;101678.56;;;24.90;72.70
59757;BME280;45631;51.962;5.974;2023-05-12T12:52:51;101674.69;;;24.92;67.33